Genius — 2CPA7 — position and weather

sailwx.info

Track history (hours):
 
Tides and Currents Weather Stations Pressure Air Temp Water Temp Dewpoint Dewpoint Depression Visibility Wind Speed Wind Dir Waves Ship Positions

Genius

Last reported at 2015-Mar-05 14:28 UTC. Time now 2015-Mar-05 14:38 UTC.
Position N 39°03' E 117°46'.

Length 288 m; draft 13.5 m.

Type: Cargo ship. MMSI: 235074615.

Date/timePositionNaut miles runAvg speedWind from/ knotsBaromVisibWave heightAir tempDewpointWater temp
2015-Mar-05 14:28N 39°03' E 117°46'0 0.0
2015-Mar-05 13:28N 39°03' E 117°46'0 0.0
2015-Mar-05 12:28N 39°03' E 117°46'0 0.0
2015-Mar-05 11:28N 39°03' E 117°46'0 0.0
2015-Mar-05 10:28N 39°03' E 117°46'0 0.0
2015-Mar-05 09:34N 39°03' E 117°46'0 0.0
2015-Mar-05 08:28N 39°03' E 117°46'0 0.0
2015-Mar-05 07:28N 39°03' E 117°46'0 0.0
2015-Mar-05 06:28N 39°03' E 117°46'0 0.0
2015-Mar-05 05:28N 39°03' E 117°46'0 0.0
2015-Mar-05 04:28N 39°03' E 117°46'0 0.0
2015-Mar-05 03:28N 39°03' E 117°46'0 0.0
2015-Mar-05 02:22N 39°03' E 117°46'0 0.0
2015-Mar-05 01:27N 39°03' E 117°46'0 0.0
2015-Mar-05 00:33N 39°03' E 117°46'0 0.0
2015-Mar-04 23:33N 39°03' E 117°46'0 0.0
2015-Mar-04 22:28N 39°03' E 117°46'0 0.0
2015-Mar-04 21:34N 39°03' E 117°46'0 0.0
2015-Mar-04 20:34N 39°03' E 117°46'0 0.0
2015-Mar-04 19:28N 39°03' E 117°46'0 0.0
2015-Mar-04 18:28N 39°03' E 117°46'0 0.0
2015-Mar-04 17:28N 39°03' E 117°46'0 0.0
2015-Mar-04 16:28N 39°03' E 117°46'0 0.0
2015-Mar-04 15:34N 39°03' E 117°46'0 0.0
2015-Mar-04 14:28N 39°03' E 117°46'0 0.0
2015-Mar-04 13:33N 39°03' E 117°46'0 0.0
2015-Mar-04 12:34N 39°03' E 117°46'0 0.0
2015-Mar-04 11:28N 39°03' E 117°46'0 0.0
2015-Mar-04 10:27N 39°03' E 117°46'0 0.0
2015-Mar-04 09:33N 39°03' E 117°46'0 0.0
2015-Mar-04 08:33N 39°03' E 117°46'0 0.0
2015-Mar-04 07:33N 39°03' E 117°46'0 0.0
2015-Mar-04 06:33N 39°03' E 117°46'0 0.3
2015-Mar-04 05:33N 39°03' E 117°46'3 2.6
2015-Mar-04 04:33N 39°00' E 117°47'10 9.8
2015-Mar-04 03:33N 38°57' E 117°59'11 9.2
2015-Mar-04 02:25N 38°51' E 118°10'159 8.9
2015-Mar-03 08:31N 38°24' E 121°31'14 9.6
2015-Mar-03 07:06N 38°19' E 121°47'208 7.2
2015-Mar-02 02:07N 35°04' E 120°20'712.4
2015-Mar-02 01:33N 35°01' E 120°12'1312.6
2015-Mar-02 00:32N 34°56' E 119°57'1212.4
2015-Mar-01 23:33N 34°51' E 119°44'1110.9
2015-Mar-01 22:33N 34°45' E 119°33'6 6.1
2015-Mar-01 21:33N 34°45' E 119°25'0 0.0
2015-Mar-01 20:28N 34°45' E 119°25'0 0.0
2015-Mar-01 19:28N 34°45' E 119°25'0 0.0
2015-Mar-01 18:22N 34°45' E 119°25'0 0.0
2015-Mar-01 17:22N 34°45' E 119°25'0 0.0
2015-Mar-01 16:28N 34°45' E 119°25'0 0.0
2015-Mar-01 15:28N 34°45' E 119°25'0 0.0
2015-Mar-01 14:28N 34°45' E 119°25'0 0.0
2015-Mar-01 13:28N 34°45' E 119°25'0 0.0
2015-Mar-01 12:22N 34°45' E 119°25'0 0.0
2015-Mar-01 11:28N 34°45' E 119°25'0 0.0
2015-Mar-01 10:28N 34°45' E 119°25'0 0.0
2015-Mar-01 09:28N 34°45' E 119°25'0 0.0
2015-Mar-01 08:28N 34°45' E 119°25'0 0.0
2015-Mar-01 07:28N 34°45' E 119°25'0 0.0
2015-Mar-01 06:28N 34°45' E 119°25'0 0.0
2015-Mar-01 05:28N 34°45' E 119°25'0 0.0
2015-Mar-01 04:28N 34°45' E 119°25'0 0.0
2015-Mar-01 03:28N 34°45' E 119°25'0 0.0
2015-Mar-01 02:28N 34°45' E 119°25'0 0.0
2015-Mar-01 01:28N 34°45' E 119°25'0 0.0
2015-Mar-01 00:28N 34°45' E 119°25'0 0.0
2015-Feb-28 23:22N 34°45' E 119°25'0 0.0
2015-Feb-28 22:28N 34°45' E 119°25'0 0.0
2015-Feb-28 21:28N 34°45' E 119°25'0 0.0
2015-Feb-28 20:28N 34°45' E 119°25'0 0.0
2015-Feb-28 19:28N 34°45' E 119°25'0 0.0
2015-Feb-28 18:28N 34°45' E 119°25'0 0.0
2015-Feb-28 17:28N 34°45' E 119°25'0 0.0
2015-Feb-28 16:28N 34°45' E 119°25'0 0.0
2015-Feb-28 15:28N 34°45' E 119°25'0 0.0
2015-Feb-28 14:22N 34°45' E 119°25'0 0.0
2015-Feb-28 13:22N 34°45' E 119°25'0 0.0
2015-Feb-28 12:28N 34°45' E 119°25'0 0.0
2015-Feb-28 11:22N 34°45' E 119°25'0 0.0
2015-Feb-28 10:28N 34°45' E 119°25'0 0.0
2015-Feb-28 09:28N 34°45' E 119°25'0 0.0
2015-Feb-28 08:28N 34°45' E 119°25'0 0.0
2015-Feb-28 07:28N 34°45' E 119°25'0 0.0
2015-Feb-28 06:34N 34°45' E 119°25'5 4.9
2015-Feb-28 05:33N 34°45' E 119°31'  
Track history (hours):
 
Tides and Currents Weather Stations Pressure Air Temp Water Temp Dewpoint Dewpoint Depression Visibility Wind Speed Wind Dir Waves Ship Positions

Genius

Last reported at 2015-Mar-05 14:28 UTC. Time now 2015-Mar-05 14:38 UTC.
Position N 39°03' E 117°46'.

Length 288 m; draft 13.5 m.

Type: Cargo ship. MMSI: 235074615.

Date/timePositionNaut miles runAvg speedWind from/ knotsBaromVisibWave heightAir tempDewpointWater temp
2015-Mar-05 14:28N 39°03' E 117°46'0 0.0
2015-Mar-05 13:28N 39°03' E 117°46'0 0.0
2015-Mar-05 12:28N 39°03' E 117°46'0 0.0
2015-Mar-05 11:28N 39°03' E 117°46'0 0.0
2015-Mar-05 10:28N 39°03' E 117°46'0 0.0
2015-Mar-05 09:34N 39°03' E 117°46'0 0.0
2015-Mar-05 08:28N 39°03' E 117°46'0 0.0
2015-Mar-05 07:28N 39°03' E 117°46'0 0.0
2015-Mar-05 06:28N 39°03' E 117°46'0 0.0
2015-Mar-05 05:28N 39°03' E 117°46'0 0.0
2015-Mar-05 04:28N 39°03' E 117°46'0 0.0
2015-Mar-05 03:28N 39°03' E 117°46'0 0.0
2015-Mar-05 02:22N 39°03' E 117°46'0 0.0
2015-Mar-05 01:27N 39°03' E 117°46'0 0.0
2015-Mar-05 00:33N 39°03' E 117°46'0 0.0
2015-Mar-04 23:33N 39°03' E 117°46'0 0.0
2015-Mar-04 22:28N 39°03' E 117°46'0 0.0
2015-Mar-04 21:34N 39°03' E 117°46'0 0.0
2015-Mar-04 20:34N 39°03' E 117°46'0 0.0
2015-Mar-04 19:28N 39°03' E 117°46'0 0.0
2015-Mar-04 18:28N 39°03' E 117°46'0 0.0
2015-Mar-04 17:28N 39°03' E 117°46'0 0.0
2015-Mar-04 16:28N 39°03' E 117°46'0 0.0
2015-Mar-04 15:34N 39°03' E 117°46'0 0.0
2015-Mar-04 14:28N 39°03' E 117°46'0 0.0
2015-Mar-04 13:33N 39°03' E 117°46'0 0.0
2015-Mar-04 12:34N 39°03' E 117°46'0 0.0
2015-Mar-04 11:28N 39°03' E 117°46'0 0.0
2015-Mar-04 10:27N 39°03' E 117°46'0 0.0
2015-Mar-04 09:33N 39°03' E 117°46'0 0.0
2015-Mar-04 08:33N 39°03' E 117°46'0 0.0
2015-Mar-04 07:33N 39°03' E 117°46'0 0.0
2015-Mar-04 06:33N 39°03' E 117°46'0 0.3
2015-Mar-04 05:33N 39°03' E 117°46'3 2.6
2015-Mar-04 04:33N 39°00' E 117°47'10 9.8
2015-Mar-04 03:33N 38°57' E 117°59'11 9.2
2015-Mar-04 02:25N 38°51' E 118°10'159 8.9
2015-Mar-03 08:31N 38°24' E 121°31'14 9.6
2015-Mar-03 07:06N 38°19' E 121°47'208 7.2
2015-Mar-02 02:07N 35°04' E 120°20'712.4
2015-Mar-02 01:33N 35°01' E 120°12'1312.6
2015-Mar-02 00:32N 34°56' E 119°57'1212.4
2015-Mar-01 23:33N 34°51' E 119°44'1110.9
2015-Mar-01 22:33N 34°45' E 119°33'6 6.1
2015-Mar-01 21:33N 34°45' E 119°25'0 0.0
2015-Mar-01 20:28N 34°45' E 119°25'0 0.0
2015-Mar-01 19:28N 34°45' E 119°25'0 0.0
2015-Mar-01 18:22N 34°45' E 119°25'0 0.0
2015-Mar-01 17:22N 34°45' E 119°25'0 0.0
2015-Mar-01 16:28N 34°45' E 119°25'0 0.0
2015-Mar-01 15:28N 34°45' E 119°25'0 0.0
2015-Mar-01 14:28N 34°45' E 119°25'0 0.0
2015-Mar-01 13:28N 34°45' E 119°25'0 0.0
2015-Mar-01 12:22N 34°45' E 119°25'0 0.0
2015-Mar-01 11:28N 34°45' E 119°25'0 0.0
2015-Mar-01 10:28N 34°45' E 119°25'0 0.0
2015-Mar-01 09:28N 34°45' E 119°25'0 0.0
2015-Mar-01 08:28N 34°45' E 119°25'0 0.0
2015-Mar-01 07:28N 34°45' E 119°25'0 0.0
2015-Mar-01 06:28N 34°45' E 119°25'0 0.0
2015-Mar-01 05:28N 34°45' E 119°25'0 0.0
2015-Mar-01 04:28N 34°45' E 119°25'0 0.0
2015-Mar-01 03:28N 34°45' E 119°25'0 0.0
2015-Mar-01 02:28N 34°45' E 119°25'0 0.0
2015-Mar-01 01:28N 34°45' E 119°25'0 0.0
2015-Mar-01 00:28N 34°45' E 119°25'0 0.0
2015-Feb-28 23:22N 34°45' E 119°25'0 0.0
2015-Feb-28 22:28N 34°45' E 119°25'0 0.0
2015-Feb-28 21:28N 34°45' E 119°25'0 0.0
2015-Feb-28 20:28N 34°45' E 119°25'0 0.0
2015-Feb-28 19:28N 34°45' E 119°25'0 0.0
2015-Feb-28 18:28N 34°45' E 119°25'0 0.0
2015-Feb-28 17:28N 34°45' E 119°25'0 0.0
2015-Feb-28 16:28N 34°45' E 119°25'0 0.0
2015-Feb-28 15:28N 34°45' E 119°25'0 0.0
2015-Feb-28 14:22N 34°45' E 119°25'0 0.0
2015-Feb-28 13:22N 34°45' E 119°25'0 0.0
2015-Feb-28 12:28N 34°45' E 119°25'0 0.0
2015-Feb-28 11:22N 34°45' E 119°25'0 0.0
2015-Feb-28 10:28N 34°45' E 119°25'0 0.0
2015-Feb-28 09:28N 34°45' E 119°25'0 0.0
2015-Feb-28 08:28N 34°45' E 119°25'0 0.0
2015-Feb-28 07:28N 34°45' E 119°25'0 0.0
2015-Feb-28 06:34N 34°45' E 119°25'5 4.9
2015-Feb-28 05:33N 34°45' E 119°31'  

Dump ship's entire track history